createdAt,value
2023-02-11T00:00:50.169Z,0.74
2023-02-11T00:01:50.777Z,0.3
2023-02-11T00:02:51.789Z,0.41
2023-02-11T00:03:52.710Z,0.21
2023-02-11T00:04:53.731Z,0.26
2023-02-11T00:05:54.835Z,0.25
2023-02-11T00:06:55.730Z,0.41
2023-02-11T00:07:56.756Z,0.44
2023-02-11T00:08:57.840Z,0.3
2023-02-11T00:09:58.770Z,0.24
2023-02-11T00:10:59.708Z,0.32
2023-02-11T00:12:00.716Z,0.29
2023-02-11T00:13:01.790Z,0.08
2023-02-11T00:14:02.872Z,0.28
2023-02-11T00:15:03.893Z,0.44
2023-02-11T00:16:04.966Z,0.09
2023-02-11T00:17:05.872Z,0.3
2023-02-11T00:18:06.942Z,0
2023-02-11T00:19:07.850Z,0.23
2023-02-11T00:20:08.880Z,0.11
2023-02-11T00:21:09.988Z,0.05
2023-02-11T00:22:11.023Z,0
2023-02-11T00:23:11.910Z,0.38
2023-02-11T00:24:12.892Z,0.21
2023-02-11T00:25:13.851Z,0.09
2023-02-11T00:26:14.789Z,0.38
2023-02-11T00:27:15.763Z,0.06
2023-02-11T00:28:16.977Z,0
2023-02-11T00:29:17.989Z,0.1
2023-02-11T00:30:18.859Z,0.84
2023-02-11T00:31:20.163Z,0.23
2023-02-11T00:32:20.728Z,0.31
2023-02-11T00:33:21.890Z,0.11
2023-02-11T00:34:22.755Z,0.2
2023-02-11T00:35:23.927Z,0.24
2023-02-11T00:36:24.880Z,0.73
2023-02-11T00:37:25.890Z,0.76
2023-02-11T00:38:26.930Z,0.23
2023-02-11T00:39:27.967Z,0.43
2023-02-11T00:40:28.890Z,0.16
2023-02-11T00:41:29.759Z,0.41
2023-02-11T00:42:30.748Z,0.47
2023-02-11T00:43:31.784Z,0.55
2023-02-11T00:44:32.836Z,0.41
2023-02-11T00:45:33.965Z,0.18
2023-02-11T00:46:35.053Z,0.37
2023-02-11T00:47:35.891Z,0.22
2023-02-11T00:48:36.897Z,0.32
2023-02-11T00:49:37.925Z,0.09
2023-02-11T00:50:38.844Z,0.24
2023-02-11T00:51:39.950Z,0.12
2023-02-11T00:52:40.945Z,0.06
2023-02-11T00:53:41.895Z,0
2023-02-11T00:54:42.924Z,0.32
2023-02-11T00:55:43.883Z,0.19
2023-02-11T00:56:44.931Z,0.19
2023-02-11T00:57:45.984Z,0.14
2023-02-11T00:58:46.984Z,0.11
2023-02-11T00:59:47.886Z,0
2023-02-11T01:00:48.946Z,0.11
2023-02-11T01:01:49.941Z,0.36
2023-02-11T01:02:50.932Z,0.52
2023-02-11T01:03:51.960Z,0.33
2023-02-11T01:04:52.871Z,0.23
2023-02-11T01:05:53.830Z,0.42
2023-02-11T01:06:54.771Z,0.26
2023-02-11T01:07:55.887Z,0.35
2023-02-11T01:08:57.007Z,0.55
2023-02-11T01:09:57.948Z,0.22
2023-02-11T01:10:58.929Z,0.17
2023-02-11T01:11:59.959Z,0.38
2023-02-11T01:13:00.955Z,0.07
2023-02-11T01:14:01.912Z,0
2023-02-11T01:15:02.978Z,0
2023-02-11T01:16:03.995Z,0
2023-02-11T01:17:04.908Z,0.14
2023-02-11T01:18:05.936Z,0.28
2023-02-11T01:19:06.991Z,0.05
2023-02-11T01:20:07.986Z,0.32
2023-02-11T01:21:08.989Z,0.13
2023-02-11T01:22:09.981Z,0.17
2023-02-11T01:23:10.893Z,0.15
2023-02-11T01:24:11.990Z,0.12
2023-02-11T01:25:12.973Z,0.23
2023-02-11T01:26:13.896Z,0.3
2023-02-11T01:27:14.820Z,0.17
2023-02-11T01:28:15.935Z,0.23
2023-02-11T01:29:16.912Z,0.25
2023-02-11T01:30:17.914Z,0.19
2023-02-11T01:31:19.006Z,0.52
2023-02-11T01:32:20.044Z,0.15
2023-02-11T01:33:21.020Z,0.6
2023-02-11T01:34:21.951Z,0.21
2023-02-11T01:35:22.934Z,0.17
2023-02-11T01:36:23.889Z,0.18
2023-02-11T01:37:24.996Z,0.25
2023-02-11T01:38:26.013Z,0.13
2023-02-11T01:39:27.010Z,0.32
2023-02-11T01:40:27.952Z,0.41
2023-02-11T01:41:29.091Z,0.26
2023-02-11T01:42:29.991Z,0.17
2023-02-11T01:43:30.951Z,0.27
2023-02-11T01:44:31.922Z,0.19
2023-02-11T01:45:32.921Z,0.29
2023-02-11T01:46:34.192Z,0.38
2023-02-11T01:47:34.901Z,0.19
2023-02-11T01:48:36.009Z,0.31
2023-02-11T01:49:36.972Z,0.13
2023-02-11T01:50:37.904Z,0.22
2023-02-11T01:51:38.911Z,0.15
2023-02-11T01:52:39.916Z,0.34
2023-02-11T01:53:40.951Z,0.41
2023-02-11T01:54:41.971Z,0.48
2023-02-11T01:55:42.972Z,0.1
2023-02-11T01:56:43.936Z,0.17
2023-02-11T01:57:44.978Z,0.13
2023-02-11T01:58:46.068Z,0.12
2023-02-11T01:59:46.981Z,0.07
2023-02-11T02:00:48.058Z,0.23
2023-02-11T02:01:48.959Z,0.11
2023-02-11T02:02:49.931Z,0.24
2023-02-11T02:05:55.024Z,0.34
2023-02-11T02:06:55.859Z,0.29
2023-02-11T02:07:56.947Z,0.31
2023-02-11T02:08:57.940Z,0.54
2023-02-11T02:09:58.939Z,0.31
2023-02-11T02:10:59.883Z,0.25
2023-02-11T02:12:00.902Z,0
2023-02-11T02:13:01.856Z,0.23
2023-02-11T02:14:02.798Z,0.19
2023-02-11T02:15:03.888Z,0.11
2023-02-11T02:16:06.219Z,0.09
2023-02-11T02:17:05.849Z,0.06
2023-02-11T02:18:06.845Z,0.35
2023-02-11T02:19:07.885Z,0.17
2023-02-11T02:20:08.822Z,0.43
2023-02-11T02:21:09.757Z,0.4
2023-02-11T02:22:10.806Z,0.42
2023-02-11T02:23:11.842Z,0.18
2023-02-11T02:24:14.200Z,0.21
2023-02-11T02:25:13.884Z,0.16
2023-02-11T02:26:14.813Z,0.8
2023-02-11T02:27:15.899Z,0.27
2023-02-11T02:28:16.831Z,0.2
2023-02-11T02:29:17.842Z,0.35
2023-02-11T02:30:18.853Z,0.4
2023-02-11T02:31:19.835Z,0.13
2023-02-11T02:32:20.873Z,0.32
2023-02-11T02:33:22.731Z,0.25
2023-02-11T02:34:22.874Z,0.17
2023-02-11T02:35:23.901Z,0.19
2023-02-11T02:36:24.915Z,0.24
2023-02-11T02:37:25.894Z,0.1
2023-02-11T02:38:26.995Z,0.14
2023-02-11T02:39:27.898Z,0.42
2023-02-11T02:40:28.991Z,0.58
2023-02-11T02:41:29.891Z,0.24
2023-02-11T02:42:30.973Z,0.46
2023-02-11T02:43:31.951Z,0.65
2023-02-11T02:44:32.952Z,0.57
2023-02-11T02:45:33.894Z,0.1
2023-02-11T02:46:34.985Z,0.37
2023-02-11T02:47:35.938Z,0.07
2023-02-11T02:48:36.953Z,0.04
2023-02-11T02:49:37.929Z,0.47
2023-02-11T02:50:38.974Z,0.16
2023-02-11T02:51:40.042Z,0.46
2023-02-11T02:52:40.934Z,0.41
2023-02-11T02:53:41.940Z,0.38
2023-02-11T02:54:43.043Z,0.42
2023-02-11T02:55:43.975Z,0.49
2023-02-11T02:56:45.041Z,0.41
2023-02-11T02:57:45.957Z,0.58
2023-02-11T02:58:47.378Z,0.33
2023-02-11T02:59:47.938Z,0.31
2023-02-11T03:00:49.028Z,0
2023-02-11T03:01:49.937Z,0.46
2023-02-11T03:02:51.043Z,0.44
2023-02-11T03:03:52.136Z,0.6
2023-02-11T03:04:52.967Z,0.45
2023-02-11T03:05:54.085Z,0.71
2023-02-11T03:06:54.895Z,0.5
2023-02-11T03:07:55.975Z,0.7
2023-02-11T03:08:57.025Z,0.45
2023-02-11T03:09:57.995Z,0.46
2023-02-11T03:10:58.915Z,0.91
2023-02-11T03:12:00.070Z,0.66
2023-02-11T03:13:01.036Z,0.61
2023-02-11T03:14:01.937Z,0.55
2023-02-11T03:15:03.054Z,0.58
2023-02-11T03:16:04.039Z,0.25
2023-02-11T03:17:05.036Z,0.3
2023-02-11T03:18:06.037Z,0.38
2023-02-11T03:19:06.916Z,0.12
2023-02-11T03:20:07.962Z,0.39
2023-02-11T03:21:08.956Z,0.18
2023-02-11T03:22:09.997Z,0.79
2023-02-11T03:23:10.925Z,0.63
2023-02-11T03:24:11.987Z,0.25
2023-02-11T03:25:13.010Z,0.18
2023-02-11T03:26:14.004Z,0.12
2023-02-11T03:27:15.021Z,0.09
2023-02-11T03:28:15.985Z,0.65
2023-02-11T03:29:16.935Z,0.16
2023-02-11T03:30:17.998Z,0.47
2023-02-11T03:31:19.151Z,0.35
2023-02-11T03:32:20.023Z,0.38
2023-02-11T03:33:20.912Z,0.2
2023-02-11T03:34:21.996Z,0.52
2023-02-11T03:35:22.976Z,0
2023-02-11T03:36:23.966Z,0.37
2023-02-11T03:37:24.977Z,0.43
2023-02-11T03:38:25.998Z,0.16
2023-02-11T03:39:26.996Z,0.28
2023-02-11T03:40:28.058Z,0.1
2023-02-11T03:41:28.976Z,0.46
2023-02-11T03:42:29.917Z,0.44
2023-02-11T03:43:30.896Z,0
2023-02-11T03:44:31.937Z,0.07
2023-02-11T03:45:33.063Z,0.14
2023-02-11T03:46:33.937Z,0.42
2023-02-11T03:47:35.104Z,0.56
2023-02-11T03:48:35.997Z,0.27
2023-02-11T03:49:36.977Z,0.12
2023-02-11T03:50:37.956Z,0.07
2023-02-11T03:51:38.956Z,0.14
2023-02-11T03:52:39.936Z,0.41
2023-02-11T03:53:40.942Z,0.08
2023-02-11T03:54:42.034Z,0.29
2023-02-11T03:55:43.057Z,0.12
2023-02-11T03:56:43.963Z,0
2023-02-11T03:57:44.980Z,0
2023-02-11T03:58:46.092Z,0.21
2023-02-11T03:59:46.869Z,0.29
2023-02-11T04:00:48.039Z,0
2023-02-11T04:01:49.086Z,0.08
2023-02-11T04:02:50.140Z,0.12
2023-02-11T04:03:50.994Z,0
2023-02-11T04:04:52.078Z,0
2023-02-11T04:05:53.095Z,0
2023-02-11T04:06:53.998Z,0.26
2023-02-11T04:07:54.961Z,0.18
2023-02-11T04:08:55.996Z,0.07
2023-02-11T04:09:57.021Z,0
2023-02-11T04:10:58.016Z,0.05
2023-02-11T04:11:59.017Z,0.31
2023-02-11T04:12:59.982Z,0.13
2023-02-11T04:14:01.140Z,0.16
2023-02-11T04:15:01.951Z,0.15
2023-02-11T04:16:02.935Z,0
2023-02-11T04:17:04.023Z,0.26
2023-02-11T04:18:04.978Z,0
2023-02-11T04:19:06.176Z,0
2023-02-11T04:20:07.978Z,0.22
2023-02-11T04:21:09.020Z,0.11
2023-02-11T04:22:10.042Z,0.27
2023-02-11T04:23:11.036Z,0
2023-02-11T04:24:12.018Z,0.2
2023-02-11T04:25:13.041Z,0
2023-02-11T04:26:14.037Z,0.25
2023-02-11T04:27:15.024Z,0.09
2023-02-11T04:28:16.015Z,0.2
2023-02-11T04:29:16.960Z,0
2023-02-11T04:30:17.937Z,0
2023-02-11T04:31:18.990Z,0.21
2023-02-11T04:32:20.021Z,0
2023-02-11T04:33:21.017Z,0.21
2023-02-11T04:34:22.025Z,0
2023-02-11T04:35:22.989Z,0.08
2023-02-11T04:36:23.965Z,0.32
2023-02-11T04:37:25.037Z,0.35
2023-02-11T04:38:26.060Z,0.17
2023-02-11T04:39:27.047Z,0.14
2023-02-11T04:40:27.987Z,0.28
2023-02-11T04:41:28.959Z,0.06
2023-02-11T04:42:29.968Z,0.13
2023-02-11T04:43:31.047Z,0.39
2023-02-11T04:44:31.974Z,0.21
2023-02-11T04:45:32.998Z,0.19
2023-02-11T04:46:33.898Z,0.13
2023-02-11T04:47:34.999Z,0.1
2023-02-11T04:48:36.001Z,0.36
2023-02-11T04:49:37.039Z,0.15
2023-02-11T04:50:38.007Z,0.13
2023-02-11T04:51:38.969Z,0.11
2023-02-11T04:52:40.000Z,0.8
2023-02-11T04:53:40.978Z,0.2
2023-02-11T04:54:42.119Z,0.39
2023-02-11T04:55:43.054Z,0.11
2023-02-11T04:56:43.931Z,0.2
2023-02-11T04:57:44.997Z,0.18
2023-02-11T04:58:46.058Z,0.39
2023-02-11T04:59:47.059Z,0.33
2023-02-11T05:00:48.045Z,0.12
2023-02-11T05:01:48.959Z,0.47
2023-02-11T05:02:50.038Z,0.22
2023-02-11T05:03:51.148Z,0.27
2023-02-11T05:04:52.047Z,0.63
2023-02-11T05:05:53.375Z,0.59
2023-02-11T05:06:54.017Z,0.45
2023-02-11T05:07:54.978Z,0.11
2023-02-11T05:08:56.073Z,0.34
2023-02-11T05:09:57.065Z,1.01
2023-02-11T05:10:58.123Z,0.85
2023-02-11T05:11:58.977Z,0.5
2023-02-11T05:12:59.975Z,0.58
2023-02-11T05:14:01.098Z,0.34
2023-02-11T05:15:02.038Z,0.69
2023-02-11T05:16:03.032Z,0.16
2023-02-11T05:17:04.155Z,0.43
2023-02-11T05:18:04.950Z,0.62
2023-02-11T05:19:06.222Z,0.23
2023-02-11T05:20:07.127Z,0.41
2023-02-11T05:21:08.059Z,0.64
2023-02-11T05:22:09.059Z,0.26
2023-02-11T05:23:09.978Z,0.55
2023-02-11T05:24:11.080Z,0.53
2023-02-11T05:25:12.057Z,0.63
2023-02-11T05:26:13.063Z,0.27
2023-02-11T05:27:13.997Z,1.2
2023-02-11T05:28:15.126Z,0.05
2023-02-11T05:29:16.016Z,0.14
2023-02-11T05:30:17.039Z,0.56
2023-02-11T05:31:18.004Z,0.47
2023-02-11T05:32:19.058Z,0.26
2023-02-11T05:33:20.038Z,0.6
2023-02-11T05:34:21.018Z,0.18
2023-02-11T05:35:22.019Z,0.25
2023-02-11T05:36:23.079Z,0.26
2023-02-11T05:37:24.250Z,0.33
2023-02-11T05:38:25.096Z,0.18
2023-02-11T05:39:26.097Z,0.24
2023-02-11T05:40:27.030Z,0.14
2023-02-11T05:41:28.016Z,0.48
2023-02-11T05:42:29.032Z,0.24
2023-02-11T05:43:30.000Z,0
2023-02-11T05:44:31.036Z,0.42
2023-02-11T05:45:32.105Z,0.39
2023-02-11T05:46:33.104Z,0.33
2023-02-11T05:47:33.997Z,0.13
2023-02-11T05:48:35.060Z,0.22
2023-02-11T05:49:36.037Z,0
2023-02-11T05:50:37.112Z,0.45
2023-02-11T05:51:38.049Z,0.43
2023-02-11T05:52:38.993Z,0.09
2023-02-11T05:53:40.056Z,0.12
2023-02-11T05:54:41.037Z,0.4
2023-02-11T05:55:42.044Z,0
2023-02-11T05:56:44.771Z,0.29
2023-02-11T05:57:44.093Z,0.26
2023-02-11T05:58:44.956Z,0.35
2023-02-11T05:59:46.184Z,0.38
2023-02-11T06:00:47.076Z,0.25
2023-02-11T06:01:48.067Z,0.29
2023-02-11T06:02:49.171Z,0.34
2023-02-11T06:03:50.100Z,0.18
2023-02-11T06:04:51.097Z,0.3
2023-02-11T06:05:52.287Z,0.37
2023-02-11T06:06:53.016Z,0.49
2023-02-11T06:07:54.086Z,0.3
2023-02-11T06:08:55.036Z,0.44
2023-02-11T06:09:56.076Z,0.49
2023-02-11T06:10:57.016Z,0.1
2023-02-11T06:11:58.029Z,0.08
2023-02-11T06:12:59.037Z,0.39
2023-02-11T06:14:00.154Z,0.23
2023-02-11T06:15:01.118Z,0.36
2023-02-11T06:16:02.228Z,0.19
2023-02-11T06:17:03.064Z,0.23
2023-02-11T06:18:04.058Z,0.25
2023-02-11T06:19:04.962Z,0.24
2023-02-11T06:20:06.117Z,0.12
2023-02-11T06:21:07.068Z,0.62
2023-02-11T06:22:08.183Z,0.2
2023-02-11T06:23:08.975Z,0.31
2023-02-11T06:24:10.045Z,0.18
2023-02-11T06:25:11.092Z,0.11
2023-02-11T06:26:12.059Z,0.35
2023-02-11T06:27:13.124Z,0.19
2023-02-11T06:28:14.072Z,0.18
2023-02-11T06:29:15.065Z,0.35
2023-02-11T06:30:16.101Z,0.23
2023-02-11T06:31:17.130Z,0.12
2023-02-11T06:32:37.235Z,0.07
2023-02-11T06:33:19.090Z,0.07
2023-02-11T06:34:20.077Z,0.35
2023-02-11T06:35:21.077Z,0.1
2023-02-11T06:36:22.057Z,0.14
2023-02-11T06:37:23.020Z,0.16
2023-02-11T06:38:24.099Z,0.32
2023-02-11T06:39:25.237Z,0.3
2023-02-11T06:40:26.162Z,0.5
2023-02-11T06:41:27.009Z,0.41
2023-02-11T06:42:28.041Z,0.09
2023-02-11T06:43:29.046Z,0.19
2023-02-11T06:44:29.957Z,0
2023-02-11T06:45:30.977Z,0.54
2023-02-11T06:46:32.012Z,0.25
2023-02-11T06:47:32.980Z,0.39
2023-02-11T06:48:34.123Z,0.48
2023-02-11T06:49:35.000Z,0.08
2023-02-11T06:50:35.979Z,0.46
2023-02-11T06:51:37.012Z,0.35
2023-02-11T06:52:38.063Z,0.13
2023-02-11T06:53:39.089Z,0.25
2023-02-11T06:54:40.061Z,0.58
2023-02-11T06:55:41.077Z,0.33
2023-02-11T06:56:42.064Z,0.24
2023-02-11T06:57:43.127Z,0.24
2023-02-11T06:58:44.058Z,0.16
2023-02-11T06:59:45.025Z,0.4
2023-02-11T07:00:46.165Z,0.23
2023-02-11T07:01:47.134Z,0.32
2023-02-11T07:02:48.092Z,0.42
2023-02-11T07:03:49.037Z,0.35
2023-02-11T07:04:49.983Z,0.28
2023-02-11T07:05:51.272Z,0.25
2023-02-11T07:06:52.079Z,0.71
2023-02-11T07:07:53.040Z,0.27
2023-02-11T07:08:53.992Z,0.41
2023-02-11T07:09:55.002Z,0.38
2023-02-11T07:10:56.013Z,0.33
2023-02-11T07:11:57.040Z,0.46
2023-02-11T07:12:58.867Z,0.44
2023-02-11T07:13:59.118Z,0.39
2023-02-11T07:15:00.092Z,0.67
2023-02-11T07:16:00.947Z,0.37
2023-02-11T07:17:01.976Z,0.58
2023-02-11T07:18:03.042Z,0.62
2023-02-11T07:19:03.992Z,0.6
2023-02-11T07:20:05.039Z,0.59
2023-02-11T07:21:06.139Z,0.46
2023-02-11T07:22:07.041Z,0.37
2023-02-11T07:23:07.973Z,0.44
2023-02-11T07:24:11.007Z,0.35
2023-02-11T07:25:09.999Z,0.59
2023-02-11T07:26:11.065Z,1.25
2023-02-11T07:27:12.037Z,0.61
2023-02-11T07:28:13.088Z,1.08
2023-02-11T07:29:14.006Z,0.87
2023-02-11T07:30:15.059Z,0.68
2023-02-11T07:31:16.116Z,1.01
2023-02-11T07:32:17.106Z,0.64
2023-02-11T07:33:18.098Z,0.38
2023-02-11T07:34:19.117Z,0.83
2023-02-11T07:35:19.999Z,0.77
2023-02-11T07:36:20.986Z,0.84
2023-02-11T07:37:21.997Z,0.9
2023-02-11T07:38:22.993Z,0.96
2023-02-11T07:39:23.968Z,0.54
2023-02-11T07:40:25.235Z,0.83
2023-02-11T07:41:26.129Z,0.5
2023-02-11T07:42:27.081Z,0.41
2023-02-11T07:43:28.007Z,0.78
2023-02-11T07:44:29.037Z,0.62
2023-02-11T07:45:30.053Z,0.95
2023-02-11T07:46:31.114Z,0.81
2023-02-11T07:47:32.007Z,0.6
2023-02-11T07:48:33.004Z,1.01
2023-02-11T07:49:34.000Z,1.14
2023-02-11T07:50:35.046Z,0.7
2023-02-11T07:51:36.011Z,0.73
2023-02-11T07:52:37.020Z,0.72
2023-02-11T07:53:38.014Z,0.81
2023-02-11T07:54:39.078Z,0.77
2023-02-11T07:55:40.058Z,1.27
2023-02-11T07:56:41.130Z,1.17
2023-02-11T07:57:41.971Z,1.28
2023-02-11T07:58:43.169Z,1.19
2023-02-11T07:59:44.044Z,1.49
2023-02-11T08:00:45.168Z,1.14
2023-02-11T08:01:46.117Z,1.34
2023-02-11T08:02:47.004Z,0.81
2023-02-11T08:03:47.955Z,0.91
2023-02-11T08:04:48.981Z,1.25
2023-02-11T08:05:50.298Z,0.9
2023-02-11T08:06:51.101Z,0.42
2023-02-11T08:07:51.996Z,0.36
2023-02-11T08:08:53.003Z,0.3
2023-02-11T08:09:54.083Z,1.09
2023-02-11T08:10:55.075Z,0.55
2023-02-11T08:11:56.020Z,0.72
2023-02-11T08:12:57.036Z,0.82
2023-02-11T08:13:58.138Z,0.46
2023-02-11T08:14:59.086Z,1.22
2023-02-11T08:16:00.093Z,1.32
2023-02-11T08:17:01.118Z,1.02
2023-02-11T08:18:02.032Z,1.03
2023-02-11T08:19:03.056Z,0.51
2023-02-11T08:20:04.066Z,0.67
2023-02-11T08:21:04.980Z,1.21
2023-02-11T08:22:06.055Z,1.02
2023-02-11T08:23:06.991Z,1.05
2023-02-11T08:24:08.025Z,0.64
2023-02-11T08:25:09.017Z,1.29
2023-02-11T08:26:10.293Z,0.45
2023-02-11T08:27:11.186Z,0.82
2023-02-11T08:28:12.094Z,0.57
2023-02-11T08:29:13.072Z,0.66
2023-02-11T08:30:14.028Z,0.9
2023-02-11T08:31:15.194Z,0.39
2023-02-11T08:32:16.140Z,0.2
2023-02-11T08:33:17.093Z,0.34
2023-02-11T08:34:18.072Z,0.6
2023-02-11T08:35:19.112Z,0.47
2023-02-11T08:36:20.111Z,0.41
2023-02-11T08:37:21.080Z,0.46
2023-02-11T08:38:22.016Z,0.61
2023-02-11T08:39:23.076Z,0.31
2023-02-11T08:40:24.052Z,0.55
2023-02-11T08:41:25.309Z,0.56
2023-02-11T08:42:26.079Z,0.61
2023-02-11T08:43:27.067Z,0.75
2023-02-11T08:44:28.062Z,1.07
2023-02-11T08:45:29.058Z,1.11
2023-02-11T08:46:30.041Z,0.93
2023-02-11T08:47:31.203Z,0.98
2023-02-11T08:48:32.054Z,0.77
2023-02-11T08:49:33.029Z,0.88
2023-02-11T08:50:34.196Z,1.2
2023-02-11T08:51:35.067Z,1.13
2023-02-11T08:52:36.155Z,1.29
2023-02-11T08:53:37.149Z,1.1
2023-02-11T08:54:38.073Z,0.8
2023-02-11T08:55:39.010Z,1.27
2023-02-11T08:56:40.139Z,2.04
2023-02-11T08:57:41.200Z,0.79
2023-02-11T08:58:42.053Z,1.37
2023-02-11T08:59:43.101Z,0.7
2023-02-11T09:00:44.092Z,0.85
2023-02-11T09:01:45.129Z,1.11
2023-02-11T09:02:46.052Z,0.57
2023-02-11T09:03:47.091Z,1.35
2023-02-11T09:04:48.075Z,0.92
2023-02-11T09:05:49.019Z,0.78
2023-02-11T09:06:50.042Z,0.97
2023-02-11T09:07:51.028Z,1.3
2023-02-11T09:08:52.091Z,1.5
2023-02-11T09:09:52.994Z,2.01
2023-02-11T09:10:54.045Z,1.13
2023-02-11T09:11:55.169Z,1
2023-02-11T09:12:56.200Z,0.99
2023-02-11T09:13:57.172Z,1.45
2023-02-11T09:14:58.152Z,0.6
2023-02-11T09:15:59.124Z,1.66
2023-02-11T09:17:00.148Z,1.27
2023-02-11T09:18:01.151Z,1.81
2023-02-11T09:19:02.175Z,1.19
2023-02-11T09:20:03.152Z,0.68
2023-02-11T09:21:04.200Z,0.86
2023-02-11T09:22:05.058Z,0.83
2023-02-11T09:23:06.230Z,1.51
2023-02-11T09:24:07.171Z,0.87
2023-02-11T09:25:08.146Z,0.8
2023-02-11T09:26:09.601Z,1.44
2023-02-11T09:27:10.111Z,0.98
2023-02-11T09:28:11.215Z,1.19
2023-02-11T09:29:12.134Z,0.38
2023-02-11T09:30:13.156Z,0.87
2023-02-11T09:31:14.277Z,1.37
2023-02-11T09:32:15.267Z,1.02
2023-02-11T09:33:16.525Z,1.02
2023-02-11T09:34:18.088Z,2.04
2023-02-11T09:35:19.018Z,1.86
2023-02-11T09:36:20.116Z,1.24
2023-02-11T09:37:21.070Z,1.42
2023-02-11T09:38:22.094Z,1.51
2023-02-11T09:39:23.087Z,1.12
2023-02-11T09:40:24.033Z,1.18
2023-02-11T09:41:25.362Z,0.85
2023-02-11T09:42:26.089Z,1.1
2023-02-11T09:43:26.954Z,1.22
2023-02-11T09:44:28.034Z,1.52
2023-02-11T09:45:29.121Z,1.9
2023-02-11T09:46:30.318Z,1.18
2023-02-11T09:47:31.148Z,2.43
2023-02-11T09:48:32.029Z,1.58
2023-02-11T09:49:33.173Z,0.89
2023-02-11T09:50:34.139Z,1.02
2023-02-11T09:51:35.134Z,1.18
2023-02-11T09:52:36.095Z,0.95
2023-02-11T09:53:37.283Z,1.27
2023-02-11T09:54:38.119Z,1.13
2023-02-11T09:55:38.957Z,1.1
2023-02-11T09:56:40.068Z,0.4
2023-02-11T09:57:41.050Z,0.66
2023-02-11T09:58:42.096Z,1.75
2023-02-11T09:59:43.161Z,0.98
2023-02-11T10:00:44.162Z,0.84
2023-02-11T10:01:45.137Z,0.61
2023-02-11T10:02:46.147Z,0.35
2023-02-11T10:03:47.124Z,0.59
2023-02-11T10:04:48.137Z,0.46
2023-02-11T10:05:49.088Z,0.89
2023-02-11T10:06:50.042Z,0.26
2023-02-11T10:07:51.162Z,0.35
2023-02-11T10:08:52.118Z,0.36
2023-02-11T10:09:53.162Z,0.53
2023-02-11T10:10:54.348Z,0.67
2023-02-11T10:11:55.139Z,0.99
2023-02-11T10:12:56.204Z,0.86
2023-02-11T10:13:57.138Z,0.92
2023-02-11T10:14:58.164Z,0.88
2023-02-11T10:15:59.221Z,0.95
2023-02-11T10:17:00.128Z,1.02
2023-02-11T10:18:01.144Z,1.06
2023-02-11T10:19:02.178Z,0.61
2023-02-11T10:20:03.080Z,1.72
2023-02-11T10:21:04.084Z,1.16
2023-02-11T10:22:05.122Z,1
2023-02-11T10:23:06.302Z,0.99
2023-02-11T10:24:07.034Z,0.94
2023-02-11T10:25:08.186Z,0.35
2023-02-11T10:26:09.079Z,0.96
2023-02-11T10:27:10.102Z,0.43
2023-02-11T10:28:11.180Z,0.64
2023-02-11T10:29:12.163Z,1.1
2023-02-11T10:30:13.140Z,0.63
2023-02-11T10:31:14.205Z,0.79
2023-02-11T10:32:15.274Z,0.93
2023-02-11T10:33:16.196Z,0.87
2023-02-11T10:34:17.079Z,0.92
2023-02-11T10:35:18.091Z,0.96
2023-02-11T10:36:19.047Z,1.25
2023-02-11T10:37:20.224Z,1.21
2023-02-11T10:38:21.159Z,0.74
2023-02-11T10:39:22.100Z,0.9
2023-02-11T10:40:23.159Z,1.91
2023-02-11T10:41:24.072Z,0.92
2023-02-11T10:42:25.476Z,0.71
2023-02-11T10:43:27.117Z,0.61
2023-02-11T10:44:28.124Z,0.84
2023-02-11T10:45:29.145Z,0.77
2023-02-11T10:46:30.228Z,1.07
2023-02-11T10:47:31.119Z,0.74
2023-02-11T10:48:32.068Z,0.53
2023-02-11T10:49:33.059Z,0.83
2023-02-11T10:50:34.063Z,0.56
2023-02-11T10:51:35.129Z,1
2023-02-11T10:52:36.157Z,0.88
2023-02-11T10:53:37.179Z,0.85
2023-02-11T10:54:38.178Z,0.6
2023-02-11T10:55:39.178Z,0.81
2023-02-11T10:56:40.012Z,1.19
2023-02-11T10:57:41.179Z,1.45
2023-02-11T10:58:42.146Z,0.62
2023-02-11T10:59:43.091Z,0.87
2023-02-11T11:00:44.140Z,0.43
2023-02-11T11:01:45.309Z,0.56
2023-02-11T11:02:46.258Z,0.39
2023-02-11T11:03:47.162Z,1.05
2023-02-11T11:04:48.239Z,1.06
2023-02-11T11:05:49.169Z,1.14
2023-02-11T11:06:50.163Z,0.95
2023-02-11T11:07:54.054Z,1
2023-02-11T11:08:55.138Z,0.98
2023-02-11T11:09:56.255Z,0.54
2023-02-11T11:10:57.118Z,1.13
2023-02-11T11:11:58.121Z,0.83
2023-02-11T11:13:01.231Z,0.77
2023-02-11T11:14:02.236Z,1.03
2023-02-11T11:15:03.179Z,0.73
2023-02-11T11:16:04.235Z,1.21
2023-02-11T11:17:05.164Z,1.37
2023-02-11T11:18:20.454Z,1.15
2023-02-11T11:19:07.132Z,1.29
2023-02-11T11:20:08.163Z,1.57
2023-02-11T11:21:09.119Z,0.78
2023-02-11T11:22:10.338Z,1.03
2023-02-11T11:23:11.143Z,1.37
2023-02-11T11:24:12.259Z,1.04
2023-02-11T11:25:13.068Z,1.57
2023-02-11T11:26:14.779Z,2.09
2023-02-11T11:27:16.179Z,1.45
2023-02-11T11:28:17.125Z,1.15
2023-02-11T11:29:18.118Z,0.58
2023-02-11T11:30:19.220Z,0.94
2023-02-11T11:31:20.178Z,0.53
2023-02-11T11:32:21.243Z,1.59
2023-02-11T11:33:22.379Z,1.07
2023-02-11T11:34:23.094Z,0.68
2023-02-11T11:35:24.218Z,1.08
2023-02-11T11:36:25.599Z,0.79
2023-02-11T11:37:27.185Z,1.14
2023-02-11T11:38:28.155Z,1.28
2023-02-11T11:39:29.195Z,1.03
2023-02-11T11:40:30.096Z,1.66
2023-02-11T11:41:31.476Z,1.58
2023-02-11T11:42:33.136Z,1.13
2023-02-11T11:43:34.489Z,1.05
2023-02-11T11:44:36.723Z,1.31
2023-02-11T11:45:38.175Z,1.66
2023-02-11T11:46:39.248Z,1.13
2023-02-11T11:47:40.177Z,1.49
2023-02-11T11:48:41.326Z,0.89
2023-02-11T11:49:42.176Z,1.33
2023-02-11T11:50:43.173Z,1.61
2023-02-11T11:51:44.132Z,1.16
2023-02-11T11:52:45.662Z,1.23
2023-02-11T11:53:47.185Z,1.37
2023-02-11T11:54:48.137Z,0.87
2023-02-11T11:55:49.155Z,1.28
2023-02-11T11:56:50.181Z,0.54
2023-02-11T11:57:51.447Z,1.06
2023-02-11T11:58:53.192Z,0.86
2023-02-11T11:59:54.233Z,1.13
2023-02-11T12:00:55.138Z,0.91
2023-02-11T12:01:56.190Z,1.02
2023-02-11T12:02:57.194Z,0.88
2023-02-11T12:03:58.204Z,0.82
2023-02-11T12:04:59.251Z,0.46
2023-02-11T12:06:00.131Z,0.56
2023-02-11T12:07:01.118Z,0.87
2023-02-11T12:08:02.291Z,0.66
2023-02-11T12:09:03.132Z,1.02
2023-02-11T12:10:04.211Z,0.92
2023-02-11T12:11:05.119Z,1.21
2023-02-11T12:12:06.232Z,1.16
2023-02-11T12:13:07.172Z,0.94
2023-02-11T12:14:08.162Z,1.2
2023-02-11T12:15:09.212Z,0.97
2023-02-11T12:16:10.268Z,0.36
2023-02-11T12:17:11.132Z,0.82
2023-02-11T12:18:12.198Z,1.17
2023-02-11T12:19:13.213Z,0.85
2023-02-11T12:20:14.339Z,1.21
2023-02-11T12:21:15.191Z,0.85
2023-02-11T12:22:16.176Z,1.42
2023-02-11T12:23:17.232Z,0.93
2023-02-11T12:24:18.218Z,1.27
2023-02-11T12:25:19.194Z,1.22
2023-02-11T12:26:20.170Z,1.46
2023-02-11T12:27:21.220Z,1.08
2023-02-11T12:28:22.299Z,1.17
2023-02-11T12:29:23.159Z,1.22
2023-02-11T12:30:24.139Z,1.14
2023-02-11T12:31:25.763Z,0.97
2023-02-11T12:32:27.152Z,1.37
2023-02-11T12:33:28.218Z,1.67
2023-02-11T12:34:29.199Z,0.85
2023-02-11T12:35:30.137Z,1.24
2023-02-11T12:36:31.147Z,1.23
2023-02-11T12:37:32.459Z,1.84
2023-02-11T12:38:33.178Z,1.26
2023-02-11T12:39:34.174Z,1.22
2023-02-11T12:40:35.205Z,0.89
2023-02-11T12:41:36.494Z,0.85
2023-02-11T12:42:38.136Z,1.16
2023-02-11T12:43:39.199Z,1.72
2023-02-11T12:44:40.133Z,1.49
2023-02-11T12:45:41.261Z,1.77
2023-02-11T12:46:42.173Z,1.43
2023-02-11T12:47:43.153Z,1.82
2023-02-11T12:48:44.218Z,1.58
2023-02-11T12:49:45.054Z,0.93
2023-02-11T12:50:46.533Z,0.67
2023-02-11T12:51:48.141Z,1.06
2023-02-11T12:52:49.193Z,1.3
2023-02-11T12:53:50.095Z,1.23
2023-02-11T12:54:51.234Z,1.11
2023-02-11T12:55:52.173Z,0.77
2023-02-11T12:56:53.533Z,0.96
2023-02-11T12:57:55.240Z,1.74
2023-02-11T12:58:56.203Z,0.76
2023-02-11T12:59:57.178Z,1.07
2023-02-11T13:00:58.277Z,1.25
2023-02-11T13:01:59.215Z,1.02
2023-02-11T13:03:00.159Z,0.68
2023-02-11T13:04:01.292Z,1.39
2023-02-11T13:05:02.279Z,1.26
2023-02-11T13:06:03.246Z,1.27
2023-02-11T13:07:04.316Z,1.71
2023-02-11T13:08:05.223Z,1.29
2023-02-11T13:09:06.216Z,0.94
2023-02-11T13:10:07.297Z,1.32
2023-02-11T13:11:08.176Z,1.12
2023-02-11T13:12:09.297Z,0.65
2023-02-11T13:13:10.195Z,0.92
2023-02-11T13:14:11.244Z,1.1
2023-02-11T13:15:12.129Z,1.44
2023-02-11T13:16:13.342Z,1.77
2023-02-11T13:17:14.230Z,1.57
2023-02-11T13:18:16.799Z,0.86
2023-02-11T13:19:16.356Z,1.11
2023-02-11T13:20:17.179Z,1.08
2023-02-11T13:21:18.258Z,0.94
2023-02-11T13:22:19.219Z,1.36
2023-02-11T13:23:20.200Z,0.89
2023-02-11T13:24:21.142Z,0.66
2023-02-11T13:25:22.190Z,1.08
2023-02-11T13:26:23.184Z,0.7
2023-02-11T13:27:24.241Z,0.8
2023-02-11T13:28:25.805Z,1.02
2023-02-11T13:29:27.234Z,1.55
2023-02-11T13:30:28.230Z,1.25
2023-02-11T13:31:31.934Z,1.48
2023-02-11T13:32:33.281Z,0.81
2023-02-11T13:33:34.192Z,1.22
2023-02-11T13:34:35.187Z,0.94
2023-02-11T13:35:36.163Z,1
2023-02-11T13:36:37.200Z,0.94
2023-02-11T13:37:38.232Z,1.37
2023-02-11T13:38:39.199Z,1.51
2023-02-11T13:39:40.239Z,1.15
2023-02-11T13:40:41.192Z,0.97